ADDS TAF Board (Experimental) INFO Settings
IDs: Format: Expanded Condensed

KPIT - Pittsburgh Intl, PA, US

Issued at 2057 UTC 26 Jul 2016
Updated at 2146 UTC 26 Jul 2016
Time2051Z 26/22Z 26/23Z 27/00Z 27/01Z 27/02Z 27/03Z 27/04Z 27/05Z 27/06Z 27/07Z 27/08Z 27/09Z 27/10Z
Type OBS PRVL PRVL PRVL PRVL PRVL PRVL PRVL PRVL PRVL PRVL PRVL PRVL PRVL
VIS 10 >6 >6 >6 >6 >6 >6 >6 >6 >6 >6 >6 >6 >6
CIG 230 -- -- 250 250 250 250 250 250 250 250 250 250 250
Cover BKN SCT SCT BKN BKN BKN BKN BKN BKN BKN BKN BKN BKN BKN
FltCat VFR VFR VFR VFR VFR VFR VFR VFR VFR VFR VFR VFR VFR VFR
WX -- -- -- -- -- -- -- -- -- -- -- -- -- --
WDir VRB 340 340 VRB VRB VRB VRB VRB VRB VRB VRB VRB VRB VRB
WSpd 6 6 6 3 3 3 3 3 3 3 3 3 3 3
WGst -- -- -- -- -- -- -- -- -- -- -- -- -- --
R10/28
XWnd VRB 6 6 VRB VRB VRB VRB VRB VRB VRB VRB VRB VRB VRB
HWnd VRB -2 -2 VRB VRB VRB VRB VRB VRB VRB VRB VRB VRB VRB
R14/32
XWnd VRB 2 2 VRB VRB VRB VRB VRB VRB VRB VRB VRB VRB VRB
HWnd VRB -5 -5 VRB VRB VRB VRB VRB VRB VRB VRB VRB VRB VRB

Raw TAF
KPIT 262057Z 2621/2724 34006KT P6SM SCT050
  FM270000 VRB03KT P6SM BKN250


Raw METAR
KPIT 262051Z VRB06KT 10SM FEW050 SCT140 BKN230 30/16 A3001 RMK AO2 SLP157 T03000156 56013
KPIT 261951Z 35005KT 10SM SCT050 BKN130 BKN220 31/16 A3001 RMK AO2 SLP158 T03110161
KPIT 261851Z 32005KT 10SM SCT050 BKN130 BKN220 30/16 A3003 RMK AO2 SLP163 T03000161

METAR Board
Radar Display
Forecast Discussion

TAF Board Legend

Potential Impact
Threat None Slight Moderate High
Visibility (sm) ≥5.1 5.1>X≥3 3>X≥1 <1
Ceiling (100 ft) ≥30.1 30.1>X≥10 10>X≥5 <5
Wind Speed (kt) <10 10≤X<20 20≤X<30 ≥30
Wind Gust (kt) <15 15≤X<25 25≤X<35 ≥35
Weather No Wx Reported VCTS,-TS,-FZRA,SN TS,FZRA +TS,+FZRA,+SN